Time;durP1;ratioP1;P1;durP2;ratioP2;P2;SDS_P1;SDS_P2;PMS_P1;PMS_P2;Temp;Humidity;BMP_temperature;BMP_pressure;BME280_temperature;BME280_humidity;BME280_pressure;Samples;Min_cycle;Max_cycle;Signal;HPM_P1;HPM_P2
2022/12/29 00:00:55;;;;;;;;;;;;;;;26.21;43.39;94074.03;4947368;28;7154;-62
2022/12/29 00:03:50;;;;;;;;;;;;;;;26.20;42.93;94075.28;4943498;28;7017;-62
2022/12/29 00:06:18;;;;;;;;;;;;;;;26.19;43.46;94073.81;5002274;28;7116;-62
2022/12/29 00:08:51;;;;;;;;;;;;;;;26.20;43.58;94078.03;5047686;28;7100;-61
2022/12/29 00:11:27;;;;;;;;;;;;;;;26.17;43.37;94077.81;5039359;28;9062;-61
2022/12/29 00:16:42;;;;;;;;;;;;;;;26.15;44.00;94058.28;5037503;28;7267;-60
2022/12/29 00:36:31;;;;;;;;;;;;;;;26.14;44.09;94048.53;5034630;28;7177;-63
2022/12/29 00:45:08;;;;;;;;;;;;;;;26.13;43.17;94055.31;5016008;28;7258;-64
2022/12/29 00:47:43;;;;;;;;;;;;;;;26.17;43.51;94057.75;5033810;28;7519;-64
2022/12/29 00:50:10;;;;;;;;;;;;;;;26.19;43.51;94057.25;5015087;28;9283;-62
2022/12/29 00:53:03;;;;;;;;;;;;;;;26.18;43.61;94053.75;5019010;28;9371;-63
2022/12/29 00:55:53;;;;;;;;;;;;;;;26.16;42.98;94057.00;4991611;28;7046;-62
2022/12/29 00:58:48;;;;;;;;;;;;;;;26.21;43.25;94057.47;4998349;28;7054;-62
2022/12/29 01:01:40;;;;;;;;;;;;;;;26.19;43.16;94049.72;4950000;28;7379;-62
2022/12/29 01:04:17;;;;;;;;;;;;;;;26.19;43.52;94057.25;4952611;28;7203;-62
2022/12/29 01:06:53;;;;;;;;;;;;;;;26.16;43.21;94057.00;4950271;28;10147;-63
2022/12/29 01:12:15;;;;;;;;;;;;;;;26.20;43.04;94064.25;4950566;28;7047;-63
2022/12/29 01:14:43;;;;;;;;;;;;;;;26.19;43.63;94057.25;4946973;28;7223;-63
2022/12/29 01:17:14;;;;;;;;;;;;;;;26.18;43.67;94067.53;4952362;28;7370;-63
2022/12/29 01:19:49;;;;;;;;;;;;;;;26.18;43.13;94073.06;4950860;28;7515;-62
2022/12/29 01:22:31;;;;;;;;;;;;;;;26.15;43.54;94063.81;4950574;28;7043;-62
2022/12/29 01:24:57;;;;;;;;;;;;;;;26.17;43.89;94066.78;4951308;28;7644;-62
2022/12/29 01:27:26;;;;;;;;;;;;;;;26.18;43.02;94075.81;4951755;28;7040;-64
2022/12/29 01:29:57;;;;;;;;;;;;;;;26.16;43.15;94075.59;4945085;28;7158;-63
2022/12/29 01:32:23;;;;;;;;;;;;;;;26.16;42.95;94076.31;4942482;28;7313;-63
2022/12/29 01:34:49;;;;;;;;;;;;;;;26.16;43.10;94081.81;4962487;28;7045;-63
2022/12/29 01:37:17;;;;;;;;;;;;;;;26.16;43.39;94083.84;4977017;28;7285;-63
2022/12/29 01:39:48;;;;;;;;;;;;;;;26.12;43.77;94080.66;5028620;28;7247;-63
2022/12/29 01:42:24;;;;;;;;;;;;;;;26.11;43.37;94090.94;5016587;28;7092;-62
2022/12/29 01:44:53;;;;;;;;;;;;;;;26.13;43.48;94088.41;5020444;28;7035;-63
2022/12/29 01:47:43;;;;;;;;;;;;;;;26.13;43.59;94093.91;5022684;28;7427;-63
2022/12/29 01:50:20;;;;;;;;;;;;;;;26.09;43.17;94081.69;5037200;28;7038;-63
2022/12/29 01:53:13;;;;;;;;;;;;;;;26.15;43.21;94090.63;5013903;28;7154;-63
2022/12/29 01:55:50;;;;;;;;;;;;;;;26.11;43.63;94079.91;5021872;28;7263;-63
2022/12/29 01:58:26;;;;;;;;;;;;;;;26.12;43.17;94086.91;5021363;28;9446;-63
2022/12/29 02:00:52;;;;;;;;;;;;;;;26.11;42.93;94084.66;5025885;28;7290;-62
2022/12/29 02:03:34;;;;;;;;;;;;;;;26.10;43.70;94075.66;5020599;28;7270;-64
2022/12/29 02:06:38;;;;;;;;;;;;;;;26.11;43.58;94077.16;5015846;28;7108;-63
2022/12/29 02:09:31;;;;;;;;;;;;;;;26.12;42.90;94086.91;5022547;28;7094;-64
2022/12/29 02:12:05;;;;;;;;;;;;;;;26.10;43.32;94067.38;5024775;28;9531;-63
2022/12/29 02:14:32;;;;;;;;;;;;;;;26.11;43.65;94068.13;5020606;28;7348;-62
2022/12/29 02:17:40;;;;;;;;;;;;;;;26.10;43.72;94074.91;5026378;28;7311;-60
2022/12/29 02:20:54;;;;;;;;;;;;;;;26.09;43.04;94078.94;5024707;28;8484;-64
2022/12/29 02:23:58;;;;;;;;;;;;;;;26.09;43.70;94067.91;5035139;28;7271;-63
2022/12/29 02:26:28;;;;;;;;;;;;;;;26.07;43.51;94065.66;5023580;28;7001;-63
2022/12/29 02:29:03;;;;;;;;;;;;;;;26.08;42.93;94080.94;5029727;28;7390;-63
2022/12/29 02:31:49;;;;;;;;;;;;;;;26.06;43.44;94077.94;5024683;28;7095;-62
2022/12/29 02:34:36;;;;;;;;;;;;;;;26.06;43.34;94075.19;5023675;28;7107;-64
2022/12/29 02:37:26;;;;;;;;;;;;;;;26.06;43.36;94086.19;5031611;28;8685;-63
2022/12/29 02:40:18;;;;;;;;;;;;;;;26.07;42.99;94093.22;5012713;28;7566;-64
2022/12/29 02:42:51;;;;;;;;;;;;;;;26.07;43.50;94089.72;5034132;28;7145;-62
2022/12/29 02:45:32;;;;;;;;;;;;;;;26.07;43.15;94095.97;5012837;28;7244;-63
2022/12/29 02:48:09;;;;;;;;;;;;;;;26.09;43.32;94081.69;5027643;28;8995;-62
2022/12/29 02:50:54;;;;;;;;;;;;;;;26.10;43.35;94094.19;5020737;28;7047;-62
2022/12/29 02:56:16;;;;;;;;;;;;;;;26.07;43.28;94084.94;5009408;28;7171;-62
2022/12/29 02:58:45;;;;;;;;;;;;;;;26.08;43.04;94072.66;5025281;28;7364;-62
2022/12/29 03:01:27;;;;;;;;;;;;;;;26.14;43.58;94087.13;5023583;28;7216;-63
2022/12/29 03:04:22;;;;;;;;;;;;;;;26.14;42.74;94072.59;5009132;28;8528;-63
2022/12/29 03:06:57;;;;;;;;;;;;;;;26.13;42.75;94074.63;5014186;28;7140;-62
2022/12/29 03:10:19;;;;;;;;;;;;;;;26.14;43.63;94086.41;5025028;28;7156;-63
2022/12/29 03:16:22;;;;;;;;;;;;;;;26.12;43.14;94084.13;5023222;28;8513;-62
2022/12/29 03:19:11;;;;;;;;;;;;;;;26.14;43.46;94087.13;4999123;28;7035;-62
2022/12/29 03:24:56;;;;;;;;;;;;;;;26.06;43.30;94077.19;5032651;28;7579;-63
2022/12/29 03:27:41;;;;;;;;;;;;;;;26.05;43.09;94079.22;5012856;28;7172;-63
2022/12/29 03:30:09;;;;;;;;;;;;;;;26.05;43.70;94073.69;5031678;28;7382;-63
2022/12/29 03:32:42;;;;;;;;;;;;;;;26.05;43.30;94070.94;4997559;28;8541;-64
2022/12/29 03:35:14;;;;;;;;;;;;;;;26.05;42.79;94070.19;5016354;28;7007;-63
2022/12/29 03:37:59;;;;;;;;;;;;;;;26.03;43.39;94073.44;5027864;28;7255;-63
2022/12/29 03:40:35;;;;;;;;;;;;;;;26.07;43.31;94067.66;5033030;28;7146;-63
2022/12/29 03:43:04;;;;;;;;;;;;;;;26.09;43.51;94071.41;5018883;28;7667;-63
2022/12/29 03:45:38;;;;;;;;;;;;;;;26.10;43.14;94072.91;5035500;28;7444;-63
2022/12/29 03:48:07;;;;;;;;;;;;;;;26.10;43.13;94075.66;5023706;28;9010;-63
2022/12/29 03:50:33;;;;;;;;;;;;;;;26.07;43.00;94076.69;5025296;28;8965;-64
2022/12/29 03:53:14;;;;;;;;;;;;;;;26.04;43.44;94063.94;5018356;28;7240;-63
2022/12/29 03:55:41;;;;;;;;;;;;;;;26.06;43.65;94072.41;5029407;28;8966;-63
2022/12/29 03:58:07;;;;;;;;;;;;;;;26.07;43.27;94062.16;5039212;28;7046;-62
2022/12/29 04:00:35;;;;;;;;;;;;;;;26.07;43.31;94064.91;5016800;28;7040;-63
2022/12/29 04:03:09;;;;;;;;;;;;;;;26.08;43.46;94063.63;5026391;28;7546;-63
2022/12/29 04:05:34;;;;;;;;;;;;;;;26.04;43.45;94049.41;5032246;28;9121;-62
2022/12/29 04:08:06;;;;;;;;;;;;;;;26.06;43.45;94044.84;5029913;28;7010;-63
2022/12/29 04:10:36;;;;;;;;;;;;;;;26.05;43.03;94057.16;5018159;28;7540;-63
2022/12/29 04:13:09;;;;;;;;;;;;;;;26.03;42.89;94047.94;5021161;28;7453;-64
2022/12/29 04:15:45;;;;;;;;;;;;;;;26.06;43.33;94044.09;5028914;28;10138;-62
2022/12/29 04:18:13;;;;;;;;;;;;;;;26.06;43.02;94044.84;5027338;28;7029;-63
2022/12/29 04:23:26;;;;;;;;;;;;;;;26.07;42.94;94038.09;5024415;28;9419;-61
2022/12/29 04:25:52;;;;;;;;;;;;;;;26.01;43.54;94031.88;5027356;28;7299;-63
2022/12/29 04:28:31;;;;;;;;;;;;;;;26.03;43.77;94026.59;5027589;28;7031;-63
2022/12/29 04:31:01;;;;;;;;;;;;;;;26.05;43.25;94043.38;5015849;28;7243;-63
2022/12/29 04:33:27;;;;;;;;;;;;;;;26.03;43.22;94034.88;5025355;28;7041;-61
2022/12/29 04:35:54;;;;;;;;;;;;;;;26.02;43.52;94047.19;5031126;28;9391;-63
2022/12/29 04:38:23;;;;;;;;;;;;;;;26.02;43.30;94044.41;5031289;28;7259;-63
2022/12/29 04:40:52;;;;;;;;;;;;;;;26.03;43.40;94050.69;5016042;28;7123;-62
2022/12/29 04:43:47;;;;;;;;;;;;;;;25.98;43.63;94040.47;5021999;28;7033;-63
2022/12/29 04:46:27;;;;;;;;;;;;;;;25.98;43.68;94037.72;4994353;28;7069;-63
2022/12/29 04:49:08;;;;;;;;;;;;;;;25.99;43.47;94045.44;5010510;28;9344;-63
2022/12/29 04:51:47;;;;;;;;;;;;;;;26.03;43.14;94040.38;5010332;28;6998;-62
2022/12/29 04:54:14;;;;;;;;;;;;;;;26.00;43.71;94037.94;5001149;28;7257;-63
2022/12/29 04:56:40;;;;;;;;;;;;;;;26.02;43.47;94035.41;5005067;28;7205;-62
2022/12/29 04:59:40;;;;;;;;;;;;;;;26.00;43.52;94033.16;4994488;28;7035;-63
2022/12/29 05:02:09;;;;;;;;;;;;;;;25.99;43.56;94034.44;4951573;28;7073;-62
2022/12/29 05:04:44;;;;;;;;;;;;;;;26.02;42.93;94040.91;4952376;28;7488;-63
2022/12/29 05:07:22;;;;;;;;;;;;;;;25.97;43.52;94036.97;4953158;28;7236;-64
2022/12/29 05:10:00;;;;;;;;;;;;;;;26.02;43.04;94043.66;4937565;28;7054;-63
2022/12/29 05:12:31;;;;;;;;;;;;;;;26.00;42.96;94041.44;4936671;28;7261;-63
2022/12/29 05:14:59;;;;;;;;;;;;;;;25.98;43.54;94038.47;4934198;28;7004;-63
2022/12/29 05:17:26;;;;;;;;;;;;;;;25.98;43.26;94032.94;4933658;29;8284;-63
2022/12/29 05:20:01;;;;;;;;;;;;;;;26.00;43.28;94035.94;4948416;28;7045;-64
2022/12/29 05:22:33;;;;;;;;;;;;;;;25.98;42.83;94037.72;4955847;28;8539;-63
2022/12/29 05:25:00;;;;;;;;;;;;;;;25.96;43.03;94024.47;4965941;28;7408;-61
2022/12/29 05:27:26;;;;;;;;;;;;;;;25.96;43.07;94024.47;4953707;28;7842;-63
2022/12/29 05:29:52;;;;;;;;;;;;;;;26.00;43.32;94027.66;4951208;28;7276;-63
2022/12/29 05:32:20;;;;;;;;;;;;;;;26.03;43.59;94023.84;4951318;28;7047;-62
2022/12/29 05:34:51;;;;;;;;;;;;;;;26.01;43.64;94020.88;4949240;28;7228;-62
2022/12/29 05:37:17;;;;;;;;;;;;;;;26.02;43.11;94027.13;4981672;28;7126;-62
2022/12/29 05:39:56;;;;;;;;;;;;;;;26.01;43.66;94029.13;5022385;28;7368;-63
2022/12/29 05:42:52;;;;;;;;;;;;;;;25.97;43.58;94019.69;5012677;28;7239;-63
2022/12/29 05:45:18;;;;;;;;;;;;;;;25.96;43.08;94032.72;5006392;28;7347;-63
2022/12/29 05:47:58;;;;;;;;;;;;;;;25.98;43.09;94032.19;4986171;28;7518;-62
2022/12/29 05:50:31;;;;;;;;;;;;;;;25.93;43.09;94025.50;4992686;28;7133;-63
2022/12/29 05:53:08;;;;;;;;;;;;;;;25.93;43.00;94025.50;4994121;28;7686;-62
2022/12/29 05:55:38;;;;;;;;;;;;;;;25.90;43.84;94023.78;5008859;28;7779;-63
2022/12/29 05:58:22;;;;;;;;;;;;;;;25.87;43.69;94033.09;5002184;28;7263;-63
2022/12/29 06:01:01;;;;;;;;;;;;;;;25.91;43.18;94033.53;5009113;28;7311;-63
2022/12/29 06:03:31;;;;;;;;;;;;;;;25.96;43.35;94040.25;4989429;28;7029;-63
2022/12/29 06:05:58;;;;;;;;;;;;;;;25.95;43.56;94044.25;4986582;28;7243;-64
2022/12/29 06:08:36;;;;;;;;;;;;;;;25.89;43.29;94047.09;4998560;28;7272;-62
2022/12/29 06:11:16;;;;;;;;;;;;;;;25.91;43.11;94050.06;5008638;28;7389;-63
2022/12/29 06:13:43;;;;;;;;;;;;;;;25.87;43.30;94052.38;5009003;28;9652;-63
2022/12/29 06:16:09;;;;;;;;;;;;;;;25.83;43.88;94051.94;4992348;28;7302;-64
2022/12/29 06:18:55;;;;;;;;;;;;;;;25.84;44.12;94055.41;5000439;28;7259;-63
2022/12/29 06:21:21;;;;;;;;;;;;;;;25.86;43.61;94048.13;5012265;28;7318;-63
2022/12/29 06:23:58;;;;;;;;;;;;;;;25.88;43.23;94044.88;5015816;28;7209;-62
2022/12/29 06:26:53;;;;;;;;;;;;;;;25.87;43.85;94055.13;5040647;28;7742;-64
2022/12/29 06:29:21;;;;;;;;;;;;;;;25.86;43.16;94067.41;5016672;28;7878;-64
2022/12/29 06:31:49;;;;;;;;;;;;;;;25.84;43.91;94064.44;5001011;28;7058;-63
2022/12/29 06:34:15;;;;;;;;;;;;;;;25.82;43.52;94066.97;5012057;28;7221;-63
2022/12/29 06:36:40;;;;;;;;;;;;;;;25.83;44.03;94070.47;5003124;28;7456;-63
2022/12/29 06:39:16;;;;;;;;;;;;;;;25.77;43.73;94075.31;4993892;28;7575;-64
2022/12/29 06:41:57;;;;;;;;;;;;;;;25.72;43.72;94071.34;5009077;28;7436;-64
2022/12/29 06:44:38;;;;;;;;;;;;;;;25.73;43.79;94070.06;5006417;28;7259;-64
2022/12/29 06:47:22;;;;;;;;;;;;;;;25.76;43.93;94074.56;4997284;28;7226;-63
2022/12/29 06:49:48;;;;;;;;;;;;;;;25.75;43.43;94077.84;4988389;28;7014;-64
2022/12/29 06:52:23;;;;;;;;;;;;;;;25.76;43.60;94066.28;4989926;28;7038;-64
2022/12/29 06:54:56;;;;;;;;;;;;;;;25.76;43.54;94069.06;5022199;28;7501;-63
2022/12/29 06:57:23;;;;;;;;;;;;;;;25.82;43.93;94078.00;4999905;28;8650;-63
2022/12/29 07:00:18;;;;;;;;;;;;;;;25.89;43.09;94071.16;4995650;28;7314;-63
2022/12/29 07:02:51;;;;;;;;;;;;;;;25.94;43.28;94081.34;4972950;28;7040;-65
2022/12/29 07:05:31;;;;;;;;;;;;;;;25.94;43.65;94076.59;4982036;28;7346;-63
2022/12/29 07:08:00;;;;;;;;;;;;;;;25.99;43.62;94100.56;4977665;28;7055;-64
2022/12/29 07:10:36;;;;;;;;;;;;;;;26.02;42.66;94101.53;4993300;28;7184;-64
2022/12/29 07:13:13;;;;;;;;;;;;;;;25.99;42.99;94095.06;4987809;28;7268;-63
2022/12/29 07:15:46;;;;;;;;;;;;;;;26.00;43.49;94096.56;4968085;28;7128;-63
2022/12/29 07:18:13;;;;;;;;;;;;;;;25.97;42.92;94103.09;4987600;28;7292;-63
2022/12/29 07:20:39;;;;;;;;;;;;;;;25.98;43.48;94101.84;4970793;28;8228;-63
2022/12/29 07:23:07;;;;;;;;;;;;;;;25.98;43.02;94093.56;4972292;28;7205;-62
2022/12/29 07:25:36;;;;;;;;;;;;;;;25.97;42.85;94094.81;4973819;28;8232;-64
2022/12/29 07:28:04;;;;;;;;;;;;;;;25.99;43.21;94100.56;4984261;28;9062;-63
2022/12/29 07:30:39;;;;;;;;;;;;;;;25.97;42.59;94113.38;4983500;28;7031;-63
2022/12/29 07:33:05;;;;;;;;;;;;;;;25.97;42.83;94108.59;4986094;28;7376;-64
2022/12/29 07:35:34;;;;;;;;;;;;;;;25.96;43.14;94087.84;4993467;28;6949;-63
2022/12/29 07:38:02;;;;;;;;;;;;;;;25.98;42.70;94087.31;4978080;28;7569;-62
2022/12/29 07:40:33;;;;;;;;;;;;;;;25.97;43.00;94092.06;5038308;28;7205;-63
2022/12/29 07:42:59;;;;;;;;;;;;;;;25.98;42.74;94081.81;5024530;28;7398;-64
2022/12/29 07:45:27;;;;;;;;;;;;;;;25.99;42.85;94097.09;5024302;28;7501;-63
2022/12/29 07:47:54;;;;;;;;;;;;;;;25.99;43.18;94067.50;5018731;28;8864;-64
2022/12/29 07:50:19;;;;;;;;;;;;;;;25.98;43.08;94082.56;5016213;28;7037;-63
2022/12/29 07:52:47;;;;;;;;;;;;;;;25.98;42.70;94099.09;5019183;28;7682;-64
2022/12/29 07:55:21;;;;;;;;;;;;;;;25.98;43.02;94066.03;5025579;28;7151;-63
2022/12/29 07:57:47;;;;;;;;;;;;;;;26.00;43.94;94076.50;5017242;28;7260;-64
2022/12/29 08:00:13;;;;;;;;;;;;;;;26.01;43.31;94075.97;5027335;28;7143;-63
2022/12/29 08:02:44;;;;;;;;;;;;;;;26.02;42.68;94065.72;5019605;28;8715;-63
2022/12/29 08:05:16;;;;;;;;;;;;;;;26.01;43.20;94073.22;5029135;28;7415;-64
2022/12/29 08:07:44;;;;;;;;;;;;;;;26.01;43.54;94064.25;5018784;28;7272;-63
2022/12/29 08:10:18;;;;;;;;;;;;;;;25.96;43.66;94068.56;5038593;28;7101;-63
2022/12/29 08:12:45;;;;;;;;;;;;;;;25.98;44.35;94068.78;5015376;28;9099;-63
2022/12/29 08:15:48;;;;;;;;;;;;;;;25.97;44.25;94070.03;5021221;28;7062;-64
2022/12/29 08:18:25;;;;;;;;;;;;;;;25.93;44.18;94072.34;5002944;28;7083;-63
2022/12/29 08:21:06;;;;;;;;;;;;;;;25.97;43.58;94072.03;5010499;28;7045;-63
2022/12/29 08:23:36;;;;;;;;;;;;;;;25.99;43.90;94075.75;5002636;28;8216;-62
2022/12/29 08:26:04;;;;;;;;;;;;;;;25.94;44.49;94059.31;5005828;28;9286;-61
2022/12/29 08:28:33;;;;;;;;;;;;;;;25.95;44.07;94060.78;4986514;28;9256;-64
2022/12/29 08:31:16;;;;;;;;;;;;;;;25.89;43.95;94049.09;4992721;28;7609;-63
2022/12/29 08:33:42;;;;;;;;;;;;;;;25.91;44.24;94065.84;4984425;28;7394;-64
2022/12/29 08:36:08;;;;;;;;;;;;;;;25.91;43.83;94074.88;4982597;28;7096;-63
2022/12/29 08:38:34;;;;;;;;;;;;;;;25.93;44.54;94072.34;5000034;28;7216;-64
2022/12/29 08:41:01;;;;;;;;;;;;;;;25.97;44.23;94069.28;4987751;28;7519;-62
2022/12/29 08:43:28;;;;;;;;;;;;;;;26.00;43.88;94069.00;4986014;28;9074;-63
2022/12/29 08:45:59;;;;;;;;;;;;;;;25.98;43.87;94068.78;4988736;28;7712;-62
2022/12/29 08:48:34;;;;;;;;;;;;;;;25.97;44.56;94078.28;4981770;28;7201;-63
2022/12/29 08:51:02;;;;;;;;;;;;;;;25.92;44.33;94081.13;5004508;28;7202;-63
2022/12/29 08:53:30;;;;;;;;;;;;;;;25.90;44.55;94087.16;5034126;28;7290;-65
2022/12/29 08:56:03;;;;;;;;;;;;;;;25.89;44.57;94087.69;5030348;28;7855;-64
2022/12/29 08:58:37;;;;;;;;;;;;;;;25.85;44.58;94090.75;5029671;28;7513;-64
2022/12/29 09:01:12;;;;;;;;;;;;;;;25.80;45.21;94093.53;5018163;28;7671;-63
2022/12/29 09:03:39;;;;;;;;;;;;;;;25.75;44.86;94081.31;5060069;28;7309;-63
2022/12/29 09:06:07;;;;;;;;;;;;;;;25.74;44.99;94087.34;5051749;28;7253;-63
2022/12/29 09:08:38;;;;;;;;;;;;;;;25.71;44.39;94094.66;5067132;28;7352;-63
2022/12/29 09:11:20;;;;;;;;;;;;;;;25.72;44.96;94101.66;5047374;28;7680;-62
2022/12/29 09:13:47;;;;;;;;;;;;;;;25.72;45.12;94095.41;5044368;28;7592;-64
2022/12/29 09:16:15;;;;;;;;;;;;;;;25.70;44.98;94104.19;5054692;28;7068;-63
2022/12/29 09:18:42;;;;;;;;;;;;;;;25.70;44.78;94104.19;5050035;28;7049;-63
2022/12/29 09:21:10;;;;;;;;;;;;;;;25.69;45.36;94099.19;5055962;28;8705;-63
2022/12/29 09:23:40;;;;;;;;;;;;;;;25.67;44.66;94102.47;5048911;28;7249;-63
2022/12/29 09:26:09;;;;;;;;;;;;;;;25.69;44.88;94104.69;5065275;28;8979;-63
2022/12/29 09:28:44;;;;;;;;;;;;;;;25.68;45.21;94112.22;5058763;28;7346;-64
2022/12/29 09:31:13;;;;;;;;;;;;;;;25.71;45.01;94119.44;5035630;28;7204;-65
2022/12/29 09:33:39;;;;;;;;;;;;;;;25.71;45.37;94113.22;5050455;28;7010;-65
2022/12/29 09:36:05;;;;;;;;;;;;;;;25.70;45.20;94117.97;5046237;28;7049;-63
2022/12/29 09:38:36;;;;;;;;;;;;;;;25.70;44.48;94115.22;5056743;28;7122;-63
2022/12/29 09:41:38;;;;;;;;;;;;;;;25.72;44.67;94112.69;5050541;28;10225;-63
2022/12/29 09:44:47;;;;;;;;;;;;;;;25.75;44.77;94125.41;5001644;28;10930;-62
2022/12/29 09:47:17;;;;;;;;;;;;;;;25.75;44.53;94128.16;4979282;28;7199;-64
2022/12/29 09:49:56;;;;;;;;;;;;;;;25.78;45.08;94118.13;5000954;28;7029;-63
2022/12/29 09:52:30;;;;;;;;;;;;;;;25.81;44.69;94117.09;4976122;28;9721;-63
2022/12/29 09:55:02;;;;;;;;;;;;;;;25.88;44.43;94119.25;4985903;28;7137;-64
2022/12/29 09:57:52;;;;;;;;;;;;;;;25.96;43.36;94112.66;4986461;28;9057;-63
2022/12/29 10:01:00;;;;;;;;;;;;;;;25.96;43.13;94109.13;4934426;28;9308;-64
2022/12/29 10:03:40;;;;;;;;;;;;;;;25.95;43.34;94104.88;4874181;29;7453;-62
2022/12/29 10:06:32;;;;;;;;;;;;;;;25.98;43.17;94098.34;4877777;29;7053;-65
2022/12/29 10:09:12;;;;;;;;;;;;;;;25.96;43.15;94095.34;4889291;29;7257;-63
2022/12/29 10:12:16;;;;;;;;;;;;;;;25.95;43.25;94097.38;4880475;29;7021;-63
2022/12/29 10:15:04;;;;;;;;;;;;;;;25.94;43.48;94086.88;4893586;29;9055;-64
2022/12/29 10:17:54;;;;;;;;;;;;;;;25.92;43.63;94083.88;4895042;29;7256;-64
2022/12/29 10:20:38;;;;;;;;;;;;;;;25.97;42.68;94083.06;4895971;29;8718;-64
2022/12/29 10:23:32;;;;;;;;;;;;;;;25.99;43.28;94075.03;4931636;29;7030;-62
2022/12/29 10:26:02;;;;;;;;;;;;;;;26.00;43.17;94068.25;4926766;29;8722;-64
2022/12/29 10:28:45;;;;;;;;;;;;;;;25.97;43.32;94061.75;4905372;29;7657;-64
2022/12/29 10:31:39;;;;;;;;;;;;;;;25.97;42.86;94064.53;4911702;29;8421;-65
2022/12/29 10:34:27;;;;;;;;;;;;;;;25.95;42.87;94061.53;4930101;29;9344;-63
2022/12/29 10:37:11;;;;;;;;;;;;;;;25.95;43.50;94071.81;4935600;28;7304;-63
2022/12/29 10:39:49;;;;;;;;;;;;;;;25.92;43.34;94062.59;5004317;28;7582;-64
2022/12/29 10:42:28;;;;;;;;;;;;;;;25.93;43.88;94068.84;5065810;28;7841;-63
2022/12/29 10:44:58;;;;;;;;;;;;;;;25.92;42.73;94073.63;5052645;28;7511;-64
2022/12/29 10:47:34;;;;;;;;;;;;;;;25.94;43.79;94073.84;5040557;28;7574;-64
2022/12/29 10:50:07;;;;;;;;;;;;;;;25.92;42.97;94067.34;5044009;28;9429;-64
2022/12/29 10:52:40;;;;;;;;;;;;;;;25.95;43.15;94069.81;5055799;28;7014;-65
2022/12/29 10:55:19;;;;;;;;;;;;;;;25.93;43.00;94057.81;5029831;28;7273;-64
2022/12/29 10:57:46;;;;;;;;;;;;;;;25.89;43.75;94051.84;5053220;28;7295;-64
2022/12/29 11:00:20;;;;;;;;;;;;;;;25.87;42.93;94046.13;5045793;28;8622;-65
2022/12/29 11:03:11;;;;;;;;;;;;;;;25.90;43.28;94048.56;5056223;28;7473;-64
2022/12/29 11:05:57;;;;;;;;;;;;;;;25.86;43.21;94059.16;5000663;28;7030;-64
2022/12/29 11:08:40;;;;;;;;;;;;;;;25.87;43.77;94057.91;5009078;28;8241;-65
2022/12/29 11:11:09;;;;;;;;;;;;;;;25.85;43.71;94060.44;5001852;28;7111;-63
2022/12/29 11:14:02;;;;;;;;;;;;;;;25.88;43.88;94056.63;4985678;28;9881;-64
2022/12/29 11:16:32;;;;;;;;;;;;;;;25.88;43.71;94064.16;4979823;28;7291;-64
2022/12/29 11:19:28;;;;;;;;;;;;;;;25.87;43.51;94055.13;4989012;28;7038;-64
2022/12/29 11:22:28;;;;;;;;;;;;;;;25.86;43.87;94039.84;4990733;28;7440;-64
2022/12/29 11:25:06;;;;;;;;;;;;;;;25.92;43.08;94056.34;5006149;28;7247;-63
2022/12/29 11:27:35;;;;;;;;;;;;;;;25.94;42.78;94054.56;4999929;28;7270;-64
2022/12/29 11:30:21;;;;;;;;;;;;;;;25.92;42.90;94057.09;4988836;28;7035;-62
2022/12/29 11:32:52;;;;;;;;;;;;;;;25.92;42.13;94046.06;4989531;28;7531;-63
2022/12/29 11:35:30;;;;;;;;;;;;;;;25.95;42.09;94044.25;5005150;28;8503;-64
2022/12/29 11:38:00;;;;;;;;;;;;;;;25.97;42.23;94055.50;4989792;28;7028;-63
2022/12/29 11:40:59;;;;;;;;;;;;;;;25.97;42.59;94063.75;4999296;28;8980;-63
2022/12/29 11:43:44;;;;;;;;;;;;;;;25.99;42.41;94064.75;4960584;28;6952;-63
2022/12/29 11:46:19;;;;;;;;;;;;;;;25.98;41.94;94054.25;4954968;28;9036;-62
2022/12/29 11:48:47;;;;;;;;;;;;;;;26.00;42.66;94057.22;4969359;28;8754;-64
2022/12/29 11:51:31;;;;;;;;;;;;;;;25.97;42.45;94036.22;4971271;28;7140;-64
2022/12/29 11:54:00;;;;;;;;;;;;;;;25.97;42.74;94050.75;4972392;28;9373;-64
2022/12/29 11:56:40;;;;;;;;;;;;;;;25.98;42.99;94045.97;4954149;28;7340;-63
2022/12/29 11:59:33;;;;;;;;;;;;;;;25.99;43.02;94045.44;4937215;28;7031;-62
2022/12/29 12:02:15;;;;;;;;;;;;;;;26.01;42.59;94025.66;4941032;28;7034;-64
2022/12/29 12:04:41;;;;;;;;;;;;;;;26.01;42.61;94004.34;4939538;28;7270;-62
2022/12/29 12:07:20;;;;;;;;;;;;;;;26.01;42.53;94001.56;4955585;28;7084;-61
2022/12/29 12:09:55;;;;;;;;;;;;;;;26.02;43.04;94005.09;4936477;28;7292;-63
2022/12/29 12:12:32;;;;;;;;;;;;;;;26.06;42.41;94000.75;4955786;28;6870;-62
2022/12/29 12:15:05;;;;;;;;;;;;;;;26.09;42.45;93985.97;4952891;28;7411;-63
2022/12/29 12:17:44;;;;;;;;;;;;;;;26.08;42.59;93987.22;4955022;28;9458;-62
2022/12/29 12:20:35;;;;;;;;;;;;;;;26.09;43.21;93982.47;5052964;28;7947;-63
2022/12/29 12:23:34;;;;;;;;;;;;;;;26.07;42.94;93977.47;5047334;28;7526;-61
2022/12/29 12:26:18;;;;;;;;;;;;;;;26.06;42.42;93975.97;5043640;28;8796;-64
2022/12/29 12:29:15;;;;;;;;;;;;;;;26.08;42.20;93973.44;5045952;28;7869;-63
2022/12/29 12:32:12;;;;;;;;;;;;;;;26.06;39.99;93967.69;5048462;28;7789;-64
2022/12/29 12:34:43;;;;;;;;;;;;;;;26.03;39.69;93979.03;5036870;28;7196;-63
2022/12/29 12:37:26;;;;;;;;;;;;;;;26.03;40.58;93968.00;5032087;28;9143;-63
2022/12/29 12:40:45;;;;;;;;;;;;;;;26.07;40.63;93971.94;5041956;28;7419;-64
2022/12/29 12:43:40;;;;;;;;;;;;;;;26.08;41.69;93972.66;5008534;28;8642;-64
2022/12/29 12:46:36;;;;;;;;;;;;;;;26.14;40.75;93965.13;5016579;28;7318;-63
2022/12/29 12:49:44;;;;;;;;;;;;;;;26.13;41.17;93966.38;5024037;28;7079;-63
2022/12/29 12:52:32;;;;;;;;;;;;;;;26.09;40.73;93965.94;5008018;28;6988;-63
2022/12/29 12:55:27;;;;;;;;;;;;;;;26.10;40.91;93946.09;5029512;28;9414;-63
2022/12/29 12:58:10;;;;;;;;;;;;;;;26.09;41.95;93946.63;5013539;28;7236;-63
2022/12/29 13:01:13;;;;;;;;;;;;;;;26.12;40.77;93943.56;5020431;28;8979;-63
2022/12/29 13:04:18;;;;;;;;;;;;;;;26.15;41.79;93939.78;5024566;28;7352;-62
2022/12/29 13:07:15;;;;;;;;;;;;;;;26.21;40.78;93947.94;5029332;28;9176;-63
2022/12/29 13:09:58;;;;;;;;;;;;;;;26.22;41.52;93943.19;5043648;28;9192;-63
2022/12/29 13:12:33;;;;;;;;;;;;;;;26.24;41.29;93937.88;5027015;28;7245;-63
2022/12/29 13:15:30;;;;;;;;;;;;;;;26.23;41.46;93922.63;5043408;28;7568;-63
2022/12/29 13:18:30;;;;;;;;;;;;;;;26.21;41.64;93922.41;5045031;28;9360;-62
2022/12/29 13:21:04;;;;;;;;;;;;;;;26.22;41.54;93921.13;5057100;28;10586;-62
2022/12/29 13:24:16;;;;;;;;;;;;;;;26.26;41.38;93936.09;5061305;28;7262;-61
2022/12/29 13:27:06;;;;;;;;;;;;;;;26.29;42.24;93937.06;5068439;28;9450;-62
2022/12/29 13:29:43;;;;;;;;;;;;;;;26.28;41.30;93936.31;5056183;28;7307;-63
2022/12/29 13:32:15;;;;;;;;;;;;;;;26.28;41.51;93932.78;5059756;28;8542;-64
2022/12/29 13:34:51;;;;;;;;;;;;;;;26.28;41.62;93944.56;5065466;28;9223;-63
2022/12/29 13:37:22;;;;;;;;;;;;;;;26.31;41.98;93959.31;5076394;28;7277;-64
2022/12/29 13:39:56;;;;;;;;;;;;;;;26.33;42.23;93967.81;5063664;28;7022;-62
2022/12/29 13:42:25;;;;;;;;;;;;;;;26.32;42.02;93960.81;5058845;28;7159;-63
2022/12/29 13:45:06;;;;;;;;;;;;;;;26.32;42.00;93974.59;5064792;28;7303;-63
2022/12/29 13:48:09;;;;;;;;;;;;;;;26.33;42.12;93982.34;5071204;28;7561;-63
2022/12/29 13:50:39;;;;;;;;;;;;;;;26.33;41.67;93981.59;5068240;28;7248;-63
2022/12/29 13:53:52;;;;;;;;;;;;;;;26.31;41.59;93979.38;5058246;28;7609;-63
2022/12/29 13:56:40;;;;;;;;;;;;;;;26.32;41.20;93977.38;5000915;28;7160;-62
2022/12/29 14:02:46;;;;;;;;;;;;;;;26.28;42.02;93960.38;4952981;28;8294;-62
2022/12/29 14:05:18;;;;;;;;;;;;;;;26.26;42.03;93974.69;4951851;28;7294;-63
2022/12/29 14:08:22;;;;;;;;;;;;;;;26.26;42.13;93957.38;4948381;28;7230;-64
2022/12/29 14:10:51;;;;;;;;;;;;;;;26.23;41.90;93948.16;4910905;29;7344;-63
2022/12/29 14:13:22;;;;;;;;;;;;;;;26.20;41.35;93957.50;4909605;29;9303;-63
2022/12/29 14:15:57;;;;;;;;;;;;;;;26.19;41.82;93952.50;4904036;29;7356;-62
2022/12/29 14:18:40;;;;;;;;;;;;;;;26.19;41.26;93955.28;4929535;29;7306;-63
2022/12/29 14:21:15;;;;;;;;;;;;;;;26.16;41.63;93970.84;4914050;29;7108;-62
2022/12/29 14:23:51;;;;;;;;;;;;;;;26.14;41.85;93963.06;4917578;29;7197;-64
2022/12/29 14:26:34;;;;;;;;;;;;;;;26.13;41.98;93966.38;4895726;29;8997;-63
2022/12/29 14:29:40;;;;;;;;;;;;;;;26.08;41.43;93970.69;4914095;29;7346;-63
2022/12/29 14:32:21;;;;;;;;;;;;;;;26.09;41.68;93976.94;4929697;28;7125;-61
2022/12/29 14:34:48;;;;;;;;;;;;;;;26.08;41.69;93969.91;4965321;28;7094;-63
2022/12/29 14:37:38;;;;;;;;;;;;;;;26.05;41.61;93970.97;4950704;28;7038;-64